sensor_id;sensor_type;location;lat;lon;timestamp;P1;durP1;ratioP1;P2;durP2;ratioP2
50367;SDS011;36281;34.132;-118.018;2023-07-09T00:02:05;12.02;;;7.97;;
50367;SDS011;36281;34.132;-118.018;2023-07-09T00:04:37;10.55;;;7.65;;
50367;SDS011;36281;34.132;-118.018;2023-07-09T00:07:11;11.25;;;7.68;;
50367;SDS011;36281;34.132;-118.018;2023-07-09T00:09:46;10.50;;;8.15;;
50367;SDS011;36281;34.132;-118.018;2023-07-09T00:12:16;11.48;;;7.45;;
50367;SDS011;36281;34.132;-118.018;2023-07-09T00:14:45;11.50;;;7.80;;
50367;SDS011;36281;34.132;-118.018;2023-07-09T00:17:21;12.43;;;7.65;;
50367;SDS011;36281;34.132;-118.018;2023-07-09T00:19:53;8.52;;;7.38;;
50367;SDS011;36281;34.132;-118.018;2023-07-09T00:22:22;9.48;;;7.50;;
50367;SDS011;36281;34.132;-118.018;2023-07-09T00:24:52;13.43;;;8.38;;
50367;SDS011;36281;34.132;-118.018;2023-07-09T00:27:25;11.10;;;8.75;;
50367;SDS011;36281;34.132;-118.018;2023-07-09T00:29:58;10.10;;;7.75;;
50367;SDS011;36281;34.132;-118.018;2023-07-09T00:32:32;9.48;;;8.35;;
50367;SDS011;36281;34.132;-118.018;2023-07-09T00:38:27;9.45;;;8.18;;
50367;SDS011;36281;34.132;-118.018;2023-07-09T00:41:02;10.93;;;7.43;;
50367;SDS011;36281;34.132;-118.018;2023-07-09T00:43:56;9.57;;;7.93;;
50367;SDS011;36281;34.132;-118.018;2023-07-09T00:50:15;10.23;;;8.00;;
50367;SDS011;36281;34.132;-118.018;2023-07-09T00:53:03;11.60;;;8.60;;
50367;SDS011;36281;34.132;-118.018;2023-07-09T00:55:42;11.75;;;8.25;;
50367;SDS011;36281;34.132;-118.018;2023-07-09T00:58:18;11.93;;;8.48;;
50367;SDS011;36281;34.132;-118.018;2023-07-09T01:00:56;12.35;;;8.77;;
50367;SDS011;36281;34.132;-118.018;2023-07-09T01:03:34;11.50;;;8.55;;
50367;SDS011;36281;34.132;-118.018;2023-07-09T01:06:20;13.27;;;9.32;;
50367;SDS011;36281;34.132;-118.018;2023-07-09T01:09:00;12.23;;;9.05;;
50367;SDS011;36281;34.132;-118.018;2023-07-09T01:11:32;10.00;;;9.00;;
50367;SDS011;36281;34.132;-118.018;2023-07-09T01:14:11;11.07;;;8.63;;
50367;SDS011;36281;34.132;-118.018;2023-07-09T01:16:50;12.48;;;9.32;;
50367;SDS011;36281;34.132;-118.018;2023-07-09T01:19:30;12.55;;;8.93;;
50367;SDS011;36281;34.132;-118.018;2023-07-09T01:22:16;12.30;;;8.95;;
50367;SDS011;36281;34.132;-118.018;2023-07-09T01:24:56;11.88;;;9.35;;
50367;SDS011;36281;34.132;-118.018;2023-07-09T01:27:31;9.65;;;8.65;;
50367;SDS011;36281;34.132;-118.018;2023-07-09T01:30:07;10.68;;;8.88;;
50367;SDS011;36281;34.132;-118.018;2023-07-09T01:32:40;11.32;;;9.32;;
50367;SDS011;36281;34.132;-118.018;2023-07-09T01:35:16;11.80;;;9.50;;
50367;SDS011;36281;34.132;-118.018;2023-07-09T01:41:02;14.00;;;9.18;;
50367;SDS011;36281;34.132;-118.018;2023-07-09T01:43:43;11.65;;;9.52;;
50367;SDS011;36281;34.132;-118.018;2023-07-09T01:49:17;12.23;;;9.38;;
50367;SDS011;36281;34.132;-118.018;2023-07-09T01:51:47;12.73;;;9.68;;
50367;SDS011;36281;34.132;-118.018;2023-07-09T01:54:18;11.45;;;9.00;;
50367;SDS011;36281;34.132;-118.018;2023-07-09T01:56:47;15.10;;;8.95;;
50367;SDS011;36281;34.132;-118.018;2023-07-09T01:59:16;11.20;;;9.63;;
50367;SDS011;36281;34.132;-118.018;2023-07-09T02:01:48;12.60;;;9.00;;
50367;SDS011;36281;34.132;-118.018;2023-07-09T02:04:21;12.82;;;9.27;;
50367;SDS011;36281;34.132;-118.018;2023-07-09T02:06:50;12.57;;;9.00;;
50367;SDS011;36281;34.132;-118.018;2023-07-09T02:09:21;10.48;;;8.93;;
50367;SDS011;36281;34.132;-118.018;2023-07-09T02:11:50;9.85;;;8.75;;
50367;SDS011;36281;34.132;-118.018;2023-07-09T02:14:19;14.68;;;10.27;;
50367;SDS011;36281;34.132;-118.018;2023-07-09T02:16:48;10.65;;;9.50;;
50367;SDS011;36281;34.132;-118.018;2023-07-09T02:19:18;9.77;;;8.65;;
50367;SDS011;36281;34.132;-118.018;2023-07-09T02:21:47;12.80;;;8.77;;
50367;SDS011;36281;34.132;-118.018;2023-07-09T02:24:16;15.57;;;9.27;;
50367;SDS011;36281;34.132;-118.018;2023-07-09T02:26:47;11.68;;;9.65;;
50367;SDS011;36281;34.132;-118.018;2023-07-09T02:29:16;10.10;;;8.98;;
50367;SDS011;36281;34.132;-118.018;2023-07-09T02:31:49;11.70;;;8.77;;
50367;SDS011;36281;34.132;-118.018;2023-07-09T02:34:19;10.85;;;8.82;;
50367;SDS011;36281;34.132;-118.018;2023-07-09T02:36:48;13.00;;;9.75;;
50367;SDS011;36281;34.132;-118.018;2023-07-09T02:39:17;13.95;;;9.15;;
50367;SDS011;36281;34.132;-118.018;2023-07-09T02:41:48;14.73;;;8.93;;
50367;SDS011;36281;34.132;-118.018;2023-07-09T02:44:18;10.60;;;8.27;;
50367;SDS011;36281;34.132;-118.018;2023-07-09T02:46:47;9.35;;;8.35;;
50367;SDS011;36281;34.132;-118.018;2023-07-09T02:49:16;12.65;;;9.75;;
50367;SDS011;36281;34.132;-118.018;2023-07-09T02:51:45;14.80;;;8.85;;
50367;SDS011;36281;34.132;-118.018;2023-07-09T02:54:14;10.52;;;8.63;;
50367;SDS011;36281;34.132;-118.018;2023-07-09T02:56:44;11.80;;;8.77;;
50367;SDS011;36281;34.132;-118.018;2023-07-09T02:59:14;11.20;;;8.90;;
50367;SDS011;36281;34.132;-118.018;2023-07-09T03:01:43;11.40;;;8.88;;
50367;SDS011;36281;34.132;-118.018;2023-07-09T03:04:13;13.35;;;8.98;;
50367;SDS011;36281;34.132;-118.018;2023-07-09T03:06:42;15.00;;;9.55;;
50367;SDS011;36281;34.132;-118.018;2023-07-09T03:09:14;11.95;;;8.45;;
50367;SDS011;36281;34.132;-118.018;2023-07-09T03:11:43;11.40;;;8.35;;
50367;SDS011;36281;34.132;-118.018;2023-07-09T03:14:14;12.20;;;8.05;;
50367;SDS011;36281;34.132;-118.018;2023-07-09T03:16:43;11.20;;;8.38;;
50367;SDS011;36281;34.132;-118.018;2023-07-09T03:19:12;11.88;;;8.40;;
50367;SDS011;36281;34.132;-118.018;2023-07-09T03:21:41;12.05;;;8.45;;
50367;SDS011;36281;34.132;-118.018;2023-07-09T03:24:10;13.60;;;9.43;;
50367;SDS011;36281;34.132;-118.018;2023-07-09T03:26:42;10.40;;;8.05;;
50367;SDS011;36281;34.132;-118.018;2023-07-09T03:29:11;11.15;;;8.07;;
50367;SDS011;36281;34.132;-118.018;2023-07-09T03:31:45;12.38;;;8.75;;
50367;SDS011;36281;34.132;-118.018;2023-07-09T03:34:19;13.48;;;9.60;;
50367;SDS011;36281;34.132;-118.018;2023-07-09T03:36:48;12.73;;;8.95;;
50367;SDS011;36281;34.132;-118.018;2023-07-09T03:39:17;11.30;;;8.52;;
50367;SDS011;36281;34.132;-118.018;2023-07-09T03:41:46;11.65;;;8.40;;
50367;SDS011;36281;34.132;-118.018;2023-07-09T03:44:17;12.25;;;8.48;;
50367;SDS011;36281;34.132;-118.018;2023-07-09T03:46:46;15.13;;;9.35;;
50367;SDS011;36281;34.132;-118.018;2023-07-09T03:49:16;12.82;;;9.18;;
50367;SDS011;36281;34.132;-118.018;2023-07-09T03:51:45;12.35;;;8.73;;
50367;SDS011;36281;34.132;-118.018;2023-07-09T03:54:14;11.55;;;9.32;;
50367;SDS011;36281;34.132;-118.018;2023-07-09T03:56:46;14.73;;;8.73;;
50367;SDS011;36281;34.132;-118.018;2023-07-09T03:59:17;17.55;;;9.52;;
50367;SDS011;36281;34.132;-118.018;2023-07-09T04:01:47;12.20;;;9.18;;
50367;SDS011;36281;34.132;-118.018;2023-07-09T04:04:17;11.98;;;9.18;;
50367;SDS011;36281;34.132;-118.018;2023-07-09T04:06:49;14.52;;;9.43;;
50367;SDS011;36281;34.132;-118.018;2023-07-09T04:09:18;14.63;;;9.35;;
50367;SDS011;36281;34.132;-118.018;2023-07-09T04:11:47;15.90;;;10.00;;
50367;SDS011;36281;34.132;-118.018;2023-07-09T04:14:22;15.95;;;9.88;;
50367;SDS011;36281;34.132;-118.018;2023-07-09T04:16:51;13.82;;;9.05;;
50367;SDS011;36281;34.132;-118.018;2023-07-09T04:19:20;13.95;;;9.65;;
50367;SDS011;36281;34.132;-118.018;2023-07-09T04:21:49;14.80;;;9.43;;
50367;SDS011;36281;34.132;-118.018;2023-07-09T04:24:18;11.88;;;9.18;;
50367;SDS011;36281;34.132;-118.018;2023-07-09T04:26:48;15.35;;;9.68;;
50367;SDS011;36281;34.132;-118.018;2023-07-09T04:29:17;13.57;;;9.38;;
50367;SDS011;36281;34.132;-118.018;2023-07-09T04:31:48;14.55;;;9.48;;
50367;SDS011;36281;34.132;-118.018;2023-07-09T04:34:19;13.45;;;9.40;;
50367;SDS011;36281;34.132;-118.018;2023-07-09T04:36:49;13.95;;;9.93;;
50367;SDS011;36281;34.132;-118.018;2023-07-09T04:39:18;14.25;;;9.52;;
50367;SDS011;36281;34.132;-118.018;2023-07-09T04:41:47;16.92;;;9.82;;
50367;SDS011;36281;34.132;-118.018;2023-07-09T04:44:16;16.13;;;10.52;;
50367;SDS011;36281;34.132;-118.018;2023-07-09T04:46:44;16.25;;;10.48;;
50367;SDS011;36281;34.132;-118.018;2023-07-09T04:49:15;14.95;;;10.30;;
50367;SDS011;36281;34.132;-118.018;2023-07-09T04:51:44;14.30;;;9.57;;
50367;SDS011;36281;34.132;-118.018;2023-07-09T04:54:13;14.05;;;10.30;;
50367;SDS011;36281;34.132;-118.018;2023-07-09T04:56:42;13.88;;;9.48;;
50367;SDS011;36281;34.132;-118.018;2023-07-09T04:59:12;16.48;;;10.07;;
50367;SDS011;36281;34.132;-118.018;2023-07-09T05:01:41;16.65;;;10.60;;
50367;SDS011;36281;34.132;-118.018;2023-07-09T05:04:10;14.88;;;9.57;;
50367;SDS011;36281;34.132;-118.018;2023-07-09T05:06:41;13.45;;;10.00;;
50367;SDS011;36281;34.132;-118.018;2023-07-09T05:09:10;13.20;;;9.73;;
50367;SDS011;36281;34.132;-118.018;2023-07-09T05:11:39;12.90;;;9.85;;
50367;SDS011;36281;34.132;-118.018;2023-07-09T05:14:08;16.60;;;10.23;;
50367;SDS011;36281;34.132;-118.018;2023-07-09T05:16:38;19.02;;;10.88;;
50367;SDS011;36281;34.132;-118.018;2023-07-09T05:19:07;15.82;;;9.95;;
50367;SDS011;36281;34.132;-118.018;2023-07-09T05:21:36;15.82;;;10.55;;
50367;SDS011;36281;34.132;-118.018;2023-07-09T05:24:09;13.25;;;10.52;;
50367;SDS011;36281;34.132;-118.018;2023-07-09T05:26:38;14.05;;;10.50;;
50367;SDS011;36281;34.132;-118.018;2023-07-09T05:29:07;16.05;;;10.02;;
50367;SDS011;36281;34.132;-118.018;2023-07-09T05:31:37;14.70;;;10.82;;
50367;SDS011;36281;34.132;-118.018;2023-07-09T05:34:10;15.18;;;10.10;;
50367;SDS011;36281;34.132;-118.018;2023-07-09T05:36:39;13.25;;;10.35;;
50367;SDS011;36281;34.132;-118.018;2023-07-09T05:39:10;15.70;;;10.93;;
50367;SDS011;36281;34.132;-118.018;2023-07-09T05:41:41;15.80;;;10.88;;
50367;SDS011;36281;34.132;-118.018;2023-07-09T05:44:10;16.65;;;11.10;;
50367;SDS011;36281;34.132;-118.018;2023-07-09T05:46:39;20.63;;;10.93;;
50367;SDS011;36281;34.132;-118.018;2023-07-09T05:49:08;18.85;;;11.73;;
50367;SDS011;36281;34.132;-118.018;2023-07-09T05:51:40;17.58;;;11.25;;
50367;SDS011;36281;34.132;-118.018;2023-07-09T05:54:11;17.15;;;12.00;;
50367;SDS011;36281;34.132;-118.018;2023-07-09T05:56:40;17.00;;;10.55;;
50367;SDS011;36281;34.132;-118.018;2023-07-09T05:59:12;18.88;;;11.85;;
50367;SDS011;36281;34.132;-118.018;2023-07-09T06:01:41;16.52;;;10.95;;
50367;SDS011;36281;34.132;-118.018;2023-07-09T06:04:12;17.35;;;11.90;;
50367;SDS011;36281;34.132;-118.018;2023-07-09T06:06:41;16.80;;;11.20;;
50367;SDS011;36281;34.132;-118.018;2023-07-09T06:09:12;14.73;;;11.40;;
50367;SDS011;36281;34.132;-118.018;2023-07-09T06:11:43;15.02;;;11.40;;
50367;SDS011;36281;34.132;-118.018;2023-07-09T06:14:12;19.55;;;11.60;;
50367;SDS011;36281;34.132;-118.018;2023-07-09T06:16:44;20.02;;;11.75;;
50367;SDS011;36281;34.132;-118.018;2023-07-09T06:19:13;19.65;;;11.63;;
50367;SDS011;36281;34.132;-118.018;2023-07-09T06:21:42;15.40;;;10.98;;
50367;SDS011;36281;34.132;-118.018;2023-07-09T06:24:12;18.55;;;11.80;;
50367;SDS011;36281;34.132;-118.018;2023-07-09T06:26:42;20.65;;;11.90;;
50367;SDS011;36281;34.132;-118.018;2023-07-09T06:29:11;18.58;;;12.20;;
50367;SDS011;36281;34.132;-118.018;2023-07-09T06:31:40;16.15;;;10.80;;
50367;SDS011;36281;34.132;-118.018;2023-07-09T06:34:10;14.77;;;11.05;;
50367;SDS011;36281;34.132;-118.018;2023-07-09T06:36:39;23.85;;;12.15;;
50367;SDS011;36281;34.132;-118.018;2023-07-09T06:39:15;18.60;;;12.02;;
50367;SDS011;36281;34.132;-118.018;2023-07-09T06:41:44;20.50;;;12.02;;
50367;SDS011;36281;34.132;-118.018;2023-07-09T06:44:13;17.92;;;11.60;;
50367;SDS011;36281;34.132;-118.018;2023-07-09T06:46:42;18.67;;;11.65;;
50367;SDS011;36281;34.132;-118.018;2023-07-09T06:49:14;19.88;;;11.65;;
50367;SDS011;36281;34.132;-118.018;2023-07-09T06:51:43;18.77;;;11.73;;
50367;SDS011;36281;34.132;-118.018;2023-07-09T06:54:12;20.90;;;12.32;;
50367;SDS011;36281;34.132;-118.018;2023-07-09T06:56:43;17.75;;;11.30;;
50367;SDS011;36281;34.132;-118.018;2023-07-09T06:59:15;18.58;;;12.00;;
50367;SDS011;36281;34.132;-118.018;2023-07-09T07:01:44;16.60;;;12.48;;
50367;SDS011;36281;34.132;-118.018;2023-07-09T07:04:13;16.65;;;11.80;;
50367;SDS011;36281;34.132;-118.018;2023-07-09T07:06:44;18.20;;;12.18;;
50367;SDS011;36281;34.132;-118.018;2023-07-09T07:09:18;21.23;;;12.32;;
50367;SDS011;36281;34.132;-118.018;2023-07-09T07:11:47;17.95;;;12.63;;
50367;SDS011;36281;34.132;-118.018;2023-07-09T07:14:16;20.50;;;11.85;;
50367;SDS011;36281;34.132;-118.018;2023-07-09T07:16:45;16.05;;;11.88;;
50367;SDS011;36281;34.132;-118.018;2023-07-09T07:19:15;16.70;;;12.02;;
50367;SDS011;36281;34.132;-118.018;2023-07-09T07:21:44;18.70;;;11.75;;
50367;SDS011;36281;34.132;-118.018;2023-07-09T07:24:13;16.10;;;11.95;;
50367;SDS011;36281;34.132;-118.018;2023-07-09T07:26:43;17.50;;;12.75;;
50367;SDS011;36281;34.132;-118.018;2023-07-09T07:29:12;20.00;;;12.52;;
50367;SDS011;36281;34.132;-118.018;2023-07-09T07:31:41;20.42;;;12.43;;
50367;SDS011;36281;34.132;-118.018;2023-07-09T07:34:11;18.55;;;12.57;;
50367;SDS011;36281;34.132;-118.018;2023-07-09T07:36:40;20.63;;;12.45;;
50367;SDS011;36281;34.132;-118.018;2023-07-09T07:39:10;20.83;;;11.95;;
50367;SDS011;36281;34.132;-118.018;2023-07-09T07:41:44;16.90;;;12.07;;
50367;SDS011;36281;34.132;-118.018;2023-07-09T07:44:14;19.27;;;13.38;;
50367;SDS011;36281;34.132;-118.018;2023-07-09T07:46:43;20.85;;;12.80;;
50367;SDS011;36281;34.132;-118.018;2023-07-09T07:49:12;20.00;;;13.95;;
50367;SDS011;36281;34.132;-118.018;2023-07-09T07:51:41;18.55;;;12.77;;
50367;SDS011;36281;34.132;-118.018;2023-07-09T07:54:12;20.58;;;13.40;;
50367;SDS011;36281;34.132;-118.018;2023-07-09T07:56:41;20.75;;;13.25;;
50367;SDS011;36281;34.132;-118.018;2023-07-09T07:59:11;17.92;;;12.73;;
50367;SDS011;36281;34.132;-118.018;2023-07-09T08:01:44;24.85;;;14.88;;
50367;SDS011;36281;34.132;-118.018;2023-07-09T08:04:13;22.02;;;14.40;;
50367;SDS011;36281;34.132;-118.018;2023-07-09T08:06:42;22.75;;;13.68;;
50367;SDS011;36281;34.132;-118.018;2023-07-09T08:09:11;25.52;;;15.73;;
50367;SDS011;36281;34.132;-118.018;2023-07-09T08:11:43;24.83;;;15.85;;
50367;SDS011;36281;34.132;-118.018;2023-07-09T08:14:14;23.70;;;15.50;;
50367;SDS011;36281;34.132;-118.018;2023-07-09T08:16:43;27.25;;;16.15;;
50367;SDS011;36281;34.132;-118.018;2023-07-09T08:19:13;21.95;;;14.77;;
50367;SDS011;36281;34.132;-118.018;2023-07-09T08:21:42;22.27;;;14.13;;
50367;SDS011;36281;34.132;-118.018;2023-07-09T08:24:11;23.08;;;14.23;;
50367;SDS011;36281;34.132;-118.018;2023-07-09T08:26:42;22.35;;;14.70;;
50367;SDS011;36281;34.132;-118.018;2023-07-09T08:29:11;19.05;;;12.55;;
50367;SDS011;36281;34.132;-118.018;2023-07-09T08:31:42;20.02;;;12.70;;
50367;SDS011;36281;34.132;-118.018;2023-07-09T08:34:11;21.02;;;12.90;;
50367;SDS011;36281;34.132;-118.018;2023-07-09T08:36:40;20.42;;;12.50;;
50367;SDS011;36281;34.132;-118.018;2023-07-09T08:39:09;19.45;;;12.15;;
50367;SDS011;36281;34.132;-118.018;2023-07-09T08:41:40;18.65;;;11.38;;
50367;SDS011;36281;34.132;-118.018;2023-07-09T08:44:26;17.17;;;12.02;;
50367;SDS011;36281;34.132;-118.018;2023-07-09T08:47:18;17.92;;;10.55;;
50367;SDS011;36281;34.132;-118.018;2023-07-09T08:49:54;20.52;;;11.40;;
50367;SDS011;36281;34.132;-118.018;2023-07-09T08:52:28;18.85;;;10.23;;
50367;SDS011;36281;34.132;-118.018;2023-07-09T08:55:03;19.00;;;9.82;;
50367;SDS011;36281;34.132;-118.018;2023-07-09T08:57:37;16.98;;;10.43;;
50367;SDS011;36281;34.132;-118.018;2023-07-09T09:00:13;14.73;;;9.85;;
50367;SDS011;36281;34.132;-118.018;2023-07-09T09:02:50;17.20;;;9.52;;
50367;SDS011;36281;34.132;-118.018;2023-07-09T09:05:24;16.13;;;10.38;;
50367;SDS011;36281;34.132;-118.018;2023-07-09T09:07:55;17.90;;;9.60;;
50367;SDS011;36281;34.132;-118.018;2023-07-09T09:10:33;18.92;;;10.20;;
50367;SDS011;36281;34.132;-118.018;2023-07-09T09:13:10;17.05;;;8.57;;
50367;SDS011;36281;34.132;-118.018;2023-07-09T09:15:42;17.75;;;9.65;;
50367;SDS011;36281;34.132;-118.018;2023-07-09T09:18:21;18.17;;;9.38;;
50367;SDS011;36281;34.132;-118.018;2023-07-09T09:20:55;17.00;;;9.45;;
50367;SDS011;36281;34.132;-118.018;2023-07-09T09:23:31;18.33;;;9.25;;
50367;SDS011;36281;34.132;-118.018;2023-07-09T09:26:15;19.27;;;8.18;;
50367;SDS011;36281;34.132;-118.018;2023-07-09T09:28:49;19.17;;;9.27;;
50367;SDS011;36281;34.132;-118.018;2023-07-09T09:31:20;17.90;;;8.60;;
50367;SDS011;36281;34.132;-118.018;2023-07-09T09:33:56;13.43;;;7.57;;
50367;SDS011;36281;34.132;-118.018;2023-07-09T09:36:28;18.23;;;8.48;;
50367;SDS011;36281;34.132;-118.018;2023-07-09T09:39:01;17.65;;;8.98;;
50367;SDS011;36281;34.132;-118.018;2023-07-09T09:41:36;13.70;;;8.13;;
50367;SDS011;36281;34.132;-118.018;2023-07-09T09:44:16;18.42;;;8.40;;
50367;SDS011;36281;34.132;-118.018;2023-07-09T09:46:47;15.15;;;7.82;;
50367;SDS011;36281;34.132;-118.018;2023-07-09T09:49:19;21.48;;;7.90;;
50367;SDS011;36281;34.132;-118.018;2023-07-09T09:51:51;18.20;;;7.50;;
50367;SDS011;36281;34.132;-118.018;2023-07-09T09:54:27;17.20;;;7.20;;
50367;SDS011;36281;34.132;-118.018;2023-07-09T09:56:58;14.05;;;7.03;;
50367;SDS011;36281;34.132;-118.018;2023-07-09T09:59:29;19.38;;;7.30;;
50367;SDS011;36281;34.132;-118.018;2023-07-09T10:02:01;20.13;;;7.57;;
50367;SDS011;36281;34.132;-118.018;2023-07-09T10:04:43;15.80;;;6.80;;
50367;SDS011;36281;34.132;-118.018;2023-07-09T10:07:14;17.10;;;7.10;;
50367;SDS011;36281;34.132;-118.018;2023-07-09T10:09:51;18.10;;;7.57;;
50367;SDS011;36281;34.132;-118.018;2023-07-09T10:12:34;14.95;;;7.30;;
50367;SDS011;36281;34.132;-118.018;2023-07-09T10:15:12;14.75;;;6.90;;
50367;SDS011;36281;34.132;-118.018;2023-07-09T10:17:53;18.63;;;8.00;;
50367;SDS011;36281;34.132;-118.018;2023-07-09T10:20:28;19.90;;;8.17;;
50367;SDS011;36281;34.132;-118.018;2023-07-09T10:23:07;16.95;;;7.95;;
50367;SDS011;36281;34.132;-118.018;2023-07-09T10:25:46;18.17;;;7.55;;
50367;SDS011;36281;34.132;-118.018;2023-07-09T10:28:33;17.38;;;7.22;;
50367;SDS011;36281;34.132;-118.018;2023-07-09T10:31:13;16.88;;;7.45;;
50367;SDS011;36281;34.132;-118.018;2023-07-09T10:33:53;14.07;;;7.50;;
50367;SDS011;36281;34.132;-118.018;2023-07-09T10:36:35;16.27;;;7.55;;
50367;SDS011;36281;34.132;-118.018;2023-07-09T10:39:17;16.70;;;8.60;;
50367;SDS011;36281;34.132;-118.018;2023-07-09T10:41:50;16.40;;;8.43;;
50367;SDS011;36281;34.132;-118.018;2023-07-09T10:44:25;17.60;;;8.48;;
50367;SDS011;36281;34.132;-118.018;2023-07-09T10:47:04;21.52;;;11.88;;
50367;SDS011;36281;34.132;-118.018;2023-07-09T10:49:40;22.02;;;11.65;;
50367;SDS011;36281;34.132;-118.018;2023-07-09T10:52:13;23.90;;;12.20;;
50367;SDS011;36281;34.132;-118.018;2023-07-09T10:54:51;23.77;;;11.30;;
50367;SDS011;36281;34.132;-118.018;2023-07-09T10:57:29;21.50;;;10.43;;
50367;SDS011;36281;34.132;-118.018;2023-07-09T11:00:03;21.92;;;12.10;;
50367;SDS011;36281;34.132;-118.018;2023-07-09T11:02:34;31.17;;;13.32;;
50367;SDS011;36281;34.132;-118.018;2023-07-09T11:05:05;23.17;;;12.07;;
50367;SDS011;36281;34.132;-118.018;2023-07-09T11:07:38;24.13;;;12.50;;
50367;SDS011;36281;34.132;-118.018;2023-07-09T11:10:14;27.52;;;12.73;;
50367;SDS011;36281;34.132;-118.018;2023-07-09T11:12:54;28.77;;;13.02;;
50367;SDS011;36281;34.132;-118.018;2023-07-09T11:15:30;22.70;;;12.15;;
50367;SDS011;36281;34.132;-118.018;2023-07-09T11:18:04;21.80;;;12.32;;
50367;SDS011;36281;34.132;-118.018;2023-07-09T11:20:36;20.48;;;11.70;;
50367;SDS011;36281;34.132;-118.018;2023-07-09T11:23:19;20.92;;;12.82;;
50367;SDS011;36281;34.132;-118.018;2023-07-09T11:26:00;25.60;;;13.30;;
50367;SDS011;36281;34.132;-118.018;2023-07-09T11:28:41;23.58;;;13.10;;
50367;SDS011;36281;34.132;-118.018;2023-07-09T11:31:18;21.27;;;13.10;;
50367;SDS011;36281;34.132;-118.018;2023-07-09T11:33:58;26.85;;;13.10;;
50367;SDS011;36281;34.132;-118.018;2023-07-09T11:36:30;21.23;;;12.88;;
50367;SDS011;36281;34.132;-118.018;2023-07-09T11:41:47;22.27;;;12.93;;
50367;SDS011;36281;34.132;-118.018;2023-07-09T11:44:17;21.92;;;12.50;;
50367;SDS011;36281;34.132;-118.018;2023-07-09T11:46:55;27.20;;;13.88;;
50367;SDS011;36281;34.132;-118.018;2023-07-09T11:49:38;26.60;;;13.95;;
50367;SDS011;36281;34.132;-118.018;2023-07-09T11:52:14;22.58;;;14.30;;
50367;SDS011;36281;34.132;-118.018;2023-07-09T11:54:49;23.98;;;13.20;;
50367;SDS011;36281;34.132;-118.018;2023-07-09T11:57:19;22.65;;;13.45;;
50367;SDS011;36281;34.132;-118.018;2023-07-09T11:59:50;21.52;;;13.20;;
50367;SDS011;36281;34.132;-118.018;2023-07-09T12:02:19;23.20;;;13.27;;
50367;SDS011;36281;34.132;-118.018;2023-07-09T12:04:50;23.55;;;13.02;;
50367;SDS011;36281;34.132;-118.018;2023-07-09T12:07:20;24.05;;;12.75;;
50367;SDS011;36281;34.132;-118.018;2023-07-09T12:09:54;24.13;;;13.43;;
50367;SDS011;36281;34.132;-118.018;2023-07-09T12:12:24;25.52;;;12.55;;
50367;SDS011;36281;34.132;-118.018;2023-07-09T12:14:55;21.75;;;12.88;;
50367;SDS011;36281;34.132;-118.018;2023-07-09T12:17:30;20.50;;;12.32;;
50367;SDS011;36281;34.132;-118.018;2023-07-09T12:20:00;20.70;;;12.02;;
50367;SDS011;36281;34.132;-118.018;2023-07-09T12:22:29;23.10;;;12.48;;
50367;SDS011;36281;34.132;-118.018;2023-07-09T12:25:00;23.08;;;13.15;;
50367;SDS011;36281;34.132;-118.018;2023-07-09T12:27:31;20.67;;;12.02;;
50367;SDS011;36281;34.132;-118.018;2023-07-09T12:30:09;19.88;;;11.45;;
50367;SDS011;36281;34.132;-118.018;2023-07-09T12:32:46;23.80;;;12.63;;
50367;SDS011;36281;34.132;-118.018;2023-07-09T12:35:17;22.30;;;12.68;;
50367;SDS011;36281;34.132;-118.018;2023-07-09T12:37:48;25.38;;;12.98;;
50367;SDS011;36281;34.132;-118.018;2023-07-09T12:40:23;27.13;;;12.60;;
50367;SDS011;36281;34.132;-118.018;2023-07-09T12:42:58;21.42;;;12.32;;
50367;SDS011;36281;34.132;-118.018;2023-07-09T12:45:29;23.60;;;12.93;;
50367;SDS011;36281;34.132;-118.018;2023-07-09T12:47:58;24.98;;;12.77;;
50367;SDS011;36281;34.132;-118.018;2023-07-09T12:50:29;18.27;;;11.80;;
50367;SDS011;36281;34.132;-118.018;2023-07-09T12:53:08;23.58;;;12.50;;
50367;SDS011;36281;34.132;-118.018;2023-07-09T12:55:44;23.45;;;12.07;;
50367;SDS011;36281;34.132;-118.018;2023-07-09T12:58:16;25.83;;;12.68;;
50367;SDS011;36281;34.132;-118.018;2023-07-09T13:00:48;26.33;;;12.82;;
50367;SDS011;36281;34.132;-118.018;2023-07-09T13:03:24;22.77;;;11.70;;
50367;SDS011;36281;34.132;-118.018;2023-07-09T13:05:55;24.20;;;13.00;;
50367;SDS011;36281;34.132;-118.018;2023-07-09T13:08:25;19.67;;;11.27;;
50367;SDS011;36281;34.132;-118.018;2023-07-09T13:10:58;19.42;;;12.00;;
50367;SDS011;36281;34.132;-118.018;2023-07-09T13:13:29;19.98;;;11.65;;
50367;SDS011;36281;34.132;-118.018;2023-07-09T13:15:59;23.27;;;12.52;;
50367;SDS011;36281;34.132;-118.018;2023-07-09T13:18:30;21.95;;;12.85;;
50367;SDS011;36281;34.132;-118.018;2023-07-09T13:20:59;25.48;;;12.60;;
50367;SDS011;36281;34.132;-118.018;2023-07-09T13:23:40;23.25;;;12.88;;
50367;SDS011;36281;34.132;-118.018;2023-07-09T13:26:12;28.73;;;14.38;;
50367;SDS011;36281;34.132;-118.018;2023-07-09T13:28:42;24.60;;;13.32;;
50367;SDS011;36281;34.132;-118.018;2023-07-09T13:31:13;19.63;;;12.73;;
50367;SDS011;36281;34.132;-118.018;2023-07-09T13:33:44;25.27;;;13.50;;
50367;SDS011;36281;34.132;-118.018;2023-07-09T13:36:20;28.05;;;13.75;;
50367;SDS011;36281;34.132;-118.018;2023-07-09T13:38:49;28.17;;;13.85;;
50367;SDS011;36281;34.132;-118.018;2023-07-09T13:41:24;24.85;;;14.50;;
50367;SDS011;36281;34.132;-118.018;2023-07-09T13:43:55;23.98;;;14.10;;
50367;SDS011;36281;34.132;-118.018;2023-07-09T13:46:26;23.02;;;13.90;;
50367;SDS011;36281;34.132;-118.018;2023-07-09T13:48:55;24.55;;;14.45;;
50367;SDS011;36281;34.132;-118.018;2023-07-09T13:51:24;25.92;;;13.77;;
50367;SDS011;36281;34.132;-118.018;2023-07-09T13:56:36;21.50;;;13.70;;
50367;SDS011;36281;34.132;-118.018;2023-07-09T13:59:11;29.00;;;14.27;;
50367;SDS011;36281;34.132;-118.018;2023-07-09T14:01:44;23.13;;;13.52;;
50367;SDS011;36281;34.132;-118.018;2023-07-09T14:04:14;23.67;;;13.35;;
50367;SDS011;36281;34.132;-118.018;2023-07-09T14:06:44;24.92;;;14.27;;
50367;SDS011;36281;34.132;-118.018;2023-07-09T14:09:14;25.80;;;14.25;;
50367;SDS011;36281;34.132;-118.018;2023-07-09T14:11:46;23.70;;;13.63;;
50367;SDS011;36281;34.132;-118.018;2023-07-09T14:14:20;25.50;;;14.23;;
50367;SDS011;36281;34.132;-118.018;2023-07-09T14:16:50;23.13;;;13.45;;
50367;SDS011;36281;34.132;-118.018;2023-07-09T14:19:20;23.77;;;14.05;;
50367;SDS011;36281;34.132;-118.018;2023-07-09T14:21:51;23.85;;;13.82;;
50367;SDS011;36281;34.132;-118.018;2023-07-09T14:24:25;24.55;;;14.57;;
50367;SDS011;36281;34.132;-118.018;2023-07-09T14:26:57;28.25;;;14.43;;
50367;SDS011;36281;34.132;-118.018;2023-07-09T14:29:26;24.00;;;14.02;;
50367;SDS011;36281;34.132;-118.018;2023-07-09T14:31:55;25.92;;;14.40;;
50367;SDS011;36281;34.132;-118.018;2023-07-09T14:34:25;27.50;;;13.77;;
50367;SDS011;36281;34.132;-118.018;2023-07-09T14:36:58;26.77;;;14.13;;
50367;SDS011;36281;34.132;-118.018;2023-07-09T14:39:28;24.95;;;14.02;;